createdAt,value
2023-01-15T00:01:05.064Z,99805.50
2023-01-15T00:04:07.985Z,99812.69
2023-01-15T00:07:11.873Z,99812.69
2023-01-15T00:10:14.431Z,99819.84
2023-01-15T00:13:17.000Z,99803.09
2023-01-15T00:16:20.503Z,99805.50
2023-01-15T00:19:23.100Z,99798.34
2023-01-15T00:22:27.019Z,99812.53
2023-01-15T00:25:55.732Z,99804.94
2023-01-15T00:28:58.262Z,99810.91
2023-01-15T00:32:01.762Z,99790.16
2023-01-15T00:35:04.680Z,99795.72
2023-01-15T00:38:08.570Z,99812.34
2023-01-15T00:41:11.128Z,99809.16
2023-01-15T00:44:13.663Z,99814.72
2023-01-15T00:47:16.195Z,99802.72
2023-01-15T00:50:18.896Z,99801.09
2023-01-15T00:53:22.832Z,99790.75
2023-01-15T00:56:25.403Z,99799.88
2023-01-15T00:59:27.935Z,99790.75
2023-01-15T01:02:30.498Z,99803.00
2023-01-15T01:05:33.108Z,99797.47
2023-01-15T01:08:37.032Z,99811.25
2023-01-15T01:11:39.624Z,99808.84
2023-01-15T01:14:43.584Z,99802.13
2023-01-15T01:17:46.228Z,99799.34
2023-01-15T01:20:48.835Z,99803.28
2023-01-15T01:23:52.785Z,99814.38
2023-01-15T01:26:55.832Z,99815.09
2023-01-15T01:29:58.422Z,99823.41
2023-01-15T01:33:01.011Z,99812.31
2023-01-15T01:36:03.590Z,99815.09
2023-01-15T01:39:08.090Z,99816.69
2023-01-15T01:42:13.103Z,99807.16
2023-01-15T01:45:20.551Z,99807.94
2023-01-15T01:48:24.486Z,99819.81
2023-01-15T01:51:28.520Z,99819.69
2023-01-15T01:54:32.460Z,99829.97
2023-01-15T01:57:35.073Z,99833.97
2023-01-15T02:00:37.730Z,99832.00
2023-01-15T02:03:40.288Z,99838.34
2023-01-15T02:06:42.812Z,99830.84
2023-01-15T02:09:46.748Z,99817.69
2023-01-15T02:12:52.084Z,99814.56
2023-01-15T02:15:57.811Z,99820.47
2023-01-15T02:19:02.093Z,99800.66
2023-01-15T02:22:07.845Z,99807.06
2023-01-15T02:25:13.908Z,99809.38
2023-01-15T02:28:19.690Z,99805.03
2023-01-15T02:31:23.427Z,99821.19
2023-01-15T02:34:27.568Z,99815.22
2023-01-15T02:37:31.139Z,99817.81
2023-01-15T02:40:33.660Z,99829.00
2023-01-15T02:43:37.580Z,99816.28
2023-01-15T02:46:40.128Z,99809.06
2023-01-15T02:49:42.654Z,99811.38
2023-01-15T02:52:46.541Z,99805.84
2023-01-15T02:55:50.277Z,99804.22
2023-01-15T02:58:55.507Z,99803.88
2023-01-15T03:01:59.571Z,99791.19
2023-01-15T03:05:03.621Z,99778.88
2023-01-15T03:08:07.056Z,99781.69
2023-01-15T03:11:10.650Z,99791.13
2023-01-15T03:14:17.317Z,99795.50
2023-01-15T03:17:21.261Z,99789.03
2023-01-15T03:20:24.779Z,99797.81
2023-01-15T03:23:27.758Z,99788.25
2023-01-15T03:26:30.295Z,99778.66
2023-01-15T03:29:35.639Z,99786.53
2023-01-15T03:32:38.420Z,99789.66
2023-01-15T03:35:45.272Z,99795.53
2023-01-15T03:38:50.585Z,99781.69
2023-01-15T03:41:58.776Z,99781.69
2023-01-15T03:45:04.881Z,99773.03
2023-01-15T03:48:11.598Z,99780.19
2023-01-15T03:51:16.838Z,99777.75
2023-01-15T03:54:22.601Z,99769.03
2023-01-15T03:57:29.081Z,99766.69
2023-01-15T04:00:34.884Z,99761.94
2023-01-15T04:03:37.474Z,99759.09
2023-01-15T04:06:40.092Z,99776.59
2023-01-15T04:09:42.761Z,99782.44
2023-01-15T04:12:45.348Z,99778.91
2023-01-15T04:15:49.354Z,99776.97
2023-01-15T04:18:52.000Z,99784.09
2023-01-15T04:21:54.566Z,99778.22
2023-01-15T04:24:57.123Z,99781.00
2023-01-15T04:27:59.704Z,99783.75
2023-01-15T04:31:03.677Z,99777.75
2023-01-15T04:34:06.317Z,99776.59
2023-01-15T04:37:08.903Z,99779.38
2023-01-15T04:40:32.167Z,99781.78
2023-01-15T04:43:52.532Z,99784.91
2023-01-15T04:46:57.420Z,99787.22
2023-01-15T04:49:59.951Z,99786.34
2023-01-15T04:53:02.523Z,99786.28
2023-01-15T04:56:05.672Z,99777.59
2023-01-15T04:59:08.326Z,99783.88
2023-01-15T05:02:15.035Z,99773.94
2023-01-15T05:05:17.892Z,99785.38
2023-01-15T05:08:20.509Z,99777.44
2023-01-15T05:11:23.092Z,99771.44
2023-01-15T05:14:25.628Z,99778.94
2023-01-15T05:17:29.562Z,99793.16
2023-01-15T05:20:32.147Z,99770.91
2023-01-15T05:23:34.679Z,99784.66
2023-01-15T05:26:37.264Z,99769.25
2023-01-15T05:29:39.798Z,99769.94
2023-01-15T05:32:43.668Z,99761.91
2023-01-15T05:35:46.263Z,99770.22
2023-01-15T05:38:48.872Z,99778.53
2023-01-15T05:41:51.664Z,99780.84
2023-01-15T05:44:54.268Z,99752.69
2023-01-15T05:47:58.227Z,99764.94
2023-01-15T05:51:02.917Z,99750.56
2023-01-15T05:54:05.983Z,99768.69
2023-01-15T05:57:08.553Z,99766.19
2023-01-15T06:00:12.299Z,99753.06
2023-01-15T06:03:16.228Z,99776.34
2023-01-15T06:06:19.152Z,99760.47
2023-01-15T06:09:22.882Z,99767.63
2023-01-15T06:12:25.468Z,99778.69
2023-01-15T06:15:29.099Z,99774.78
2023-01-15T06:18:35.360Z,99769.22
2023-01-15T06:21:37.900Z,99769.22
2023-01-15T06:24:40.457Z,99773.16
2023-01-15T06:27:44.533Z,99789.75
2023-01-15T06:30:47.091Z,99786.53
2023-01-15T06:33:51.155Z,99778.31
2023-01-15T06:36:53.753Z,99781.47
2023-01-15T06:39:56.293Z,99788.59
2023-01-15T06:43:17.092Z,99767.63
2023-01-15T06:46:37.394Z,99769.94
2023-01-15T06:49:41.327Z,99763.94
2023-01-15T06:52:43.920Z,99766.69
2023-01-15T06:55:46.520Z,99774.56
2023-01-15T06:58:49.108Z,99771.69
2023-01-15T07:01:51.717Z,99768.13
2023-01-15T07:04:55.677Z,99771.28
2023-01-15T07:07:59.051Z,99767.69
2023-01-15T07:11:04.034Z,99772.84
2023-01-15T07:14:09.355Z,99774.47
2023-01-15T07:17:11.941Z,99752.25
2023-01-15T07:20:15.886Z,99766.97
2023-01-15T07:23:18.421Z,99761.16
2023-01-15T07:26:20.947Z,99756.81
2023-01-15T07:29:23.608Z,99757.97
2023-01-15T07:32:26.150Z,99755.63
2023-01-15T07:35:30.976Z,99749.75
2023-01-15T07:38:33.499Z,99744.66
2023-01-15T07:41:53.866Z,99760.47
2023-01-15T07:45:14.074Z,99747.09
2023-01-15T07:48:34.308Z,99750.19
2023-01-15T07:51:38.167Z,99750.19
2023-01-15T07:54:40.710Z,99759.75
2023-01-15T07:57:43.302Z,99752.63
2023-01-15T08:00:45.861Z,99749.94
2023-01-15T08:03:48.439Z,99754.38
2023-01-15T08:06:52.347Z,99755.31
2023-01-15T08:09:54.949Z,99758.16
2023-01-15T08:13:15.042Z,99773.25
2023-01-15T08:16:17.662Z,99771.38
2023-01-15T08:19:20.247Z,99760.38
2023-01-15T08:22:24.170Z,99773.41
2023-01-15T08:25:26.762Z,99764.31
2023-01-15T08:28:29.321Z,99772.97
2023-01-15T08:31:31.953Z,99757.53
2023-01-15T08:34:34.591Z,99764.22
2023-01-15T08:37:38.500Z,99773.78
2023-01-15T08:40:55.019Z,99762.34
2023-01-15T08:43:57.592Z,99755.63
2023-01-15T08:47:00.197Z,99769.75
2023-01-15T08:50:02.746Z,99761.44
2023-01-15T08:53:06.721Z,99768.25
2023-01-15T08:56:13.143Z,99776.03
2023-01-15T08:59:15.745Z,99760.28
2023-01-15T09:02:18.624Z,99768.59
2023-01-15T09:05:21.195Z,99774.94
2023-01-15T09:08:25.060Z,99778.53
2023-01-15T09:11:28.619Z,99756.38
2023-01-15T09:14:58.674Z,99750.91
2023-01-15T09:17:53.712Z,99759.22
2023-01-15T09:20:56.279Z,99761.28
2023-01-15T09:24:00.213Z,99768.03
2023-01-15T09:27:02.788Z,99763.78
2023-01-15T09:30:07.059Z,99770.56
2023-01-15T09:33:11.142Z,99767.06
2023-01-15T09:36:16.281Z,99753.56
2023-01-15T09:39:20.230Z,99755.63
2023-01-15T09:42:31.036Z,99767.94
2023-01-15T09:45:38.156Z,99755.28
2023-01-15T09:48:48.638Z,99766.63
2023-01-15T09:51:53.777Z,99775.00
2023-01-15T09:55:01.861Z,99770.09
2023-01-15T09:58:05.461Z,99768.72
2023-01-15T10:01:08.063Z,99778.88
2023-01-15T10:04:14.460Z,99765.94
2023-01-15T10:07:18.899Z,99759.66
2023-01-15T10:10:25.041Z,99791.03
2023-01-15T10:13:29.810Z,99776.00
2023-01-15T10:16:33.731Z,99781.13
2023-01-15T10:19:44.399Z,99785.06
2023-01-15T10:22:57.705Z,99781.75
2023-01-15T10:26:04.319Z,99788.00
2023-01-15T10:29:10.630Z,99788.00
2023-01-15T10:32:23.159Z,99785.75
2023-01-15T10:35:41.865Z,99798.47
2023-01-15T10:38:47.791Z,99781.81
2023-01-15T10:41:55.917Z,99807.22
2023-01-15T10:45:02.332Z,99804.91
2023-01-15T10:48:07.262Z,99794.97
2023-01-15T10:51:15.447Z,99803.28
2023-01-15T10:54:23.093Z,99804.16
2023-01-15T10:57:37.689Z,99770.19
2023-01-15T11:00:40.365Z,99794.25
2023-01-15T11:03:43.539Z,99806.94
2023-01-15T11:06:46.116Z,99800.56
2023-01-15T11:09:48.663Z,99819.03
2023-01-15T11:13:10.680Z,99810.06
2023-01-15T11:16:38.485Z,99794.56
2023-01-15T11:19:41.604Z,99789.91
2023-01-15T11:22:45.025Z,99812.19
2023-01-15T11:25:51.284Z,99794.13
2023-01-15T11:28:55.608Z,99796.59
2023-01-15T11:31:58.202Z,99788.00
2023-01-15T11:35:01.636Z,99788.00
2023-01-15T11:38:05.839Z,99792.66
2023-01-15T11:41:08.413Z,99791.94
2023-01-15T11:44:30.009Z,99776.03
2023-01-15T11:47:50.348Z,99783.78
2023-01-15T11:50:54.062Z,99810.63
2023-01-15T11:54:00.380Z,99812.97
2023-01-15T11:57:03.006Z,99811.44
2023-01-15T12:00:08.416Z,99804.81
2023-01-15T12:03:14.995Z,99801.28
2023-01-15T12:06:19.765Z,99802.91
2023-01-15T12:09:26.010Z,99797.34
2023-01-15T12:12:33.979Z,99797.25
2023-01-15T12:15:43.155Z,99798.81
2023-01-15T12:18:51.844Z,99812.97
2023-01-15T12:22:00.423Z,99810.41
2023-01-15T12:25:17.800Z,99820.84
2023-01-15T12:28:24.381Z,99813.63
2023-01-15T12:31:30.265Z,99809.31
2023-01-15T12:34:35.640Z,99808.16
2023-01-15T12:37:40.591Z,99796.59
2023-01-15T12:40:46.741Z,99805.81
2023-01-15T12:44:10.084Z,99812.97
2023-01-15T12:47:16.407Z,99807.50
2023-01-15T12:50:28.219Z,99778.94
2023-01-15T12:53:32.755Z,99796.59
2023-01-15T12:56:41.623Z,99798.38
2023-01-15T12:59:48.363Z,99792.97
2023-01-15T13:03:08.339Z,99801.72
2023-01-15T13:06:10.979Z,99805.66
2023-01-15T13:09:19.009Z,99806.38
2023-01-15T13:12:21.531Z,99814.28
2023-01-15T13:15:26.566Z,99811.06
2023-01-15T13:18:35.215Z,99813.03
2023-01-15T13:21:37.903Z,99804.22
2023-01-15T13:25:03.405Z,99807.84
2023-01-15T13:28:20.014Z,99814.28
2023-01-15T13:31:36.652Z,99808.19
2023-01-15T13:34:43.157Z,99808.19
2023-01-15T13:37:46.369Z,99810.56
2023-01-15T13:40:52.050Z,99821.56
2023-01-15T13:43:57.931Z,99839.84
2023-01-15T13:47:02.400Z,99819.25
2023-01-15T13:50:07.687Z,99808.00
2023-01-15T13:53:16.524Z,99831.75
2023-01-15T13:56:27.609Z,99834.13
2023-01-15T13:59:39.246Z,99834.94
2023-01-15T14:02:41.800Z,99811.94
2023-01-15T14:05:55.333Z,99850.78
2023-01-15T14:08:57.875Z,99847.97
2023-01-15T14:12:07.626Z,99857.00
2023-01-15T14:15:19.493Z,99857.00
2023-01-15T14:18:35.143Z,99847.00
2023-01-15T14:21:45.541Z,99857.66
2023-01-15T14:25:14.528Z,99863.94
2023-01-15T14:28:26.835Z,99861.53
2023-01-15T14:31:50.111Z,99856.72
2023-01-15T14:34:55.670Z,99852.69
2023-01-15T14:38:00.522Z,99856.72
2023-01-15T14:41:04.624Z,99855.19
2023-01-15T14:44:06.196Z,99871.09
2023-01-15T14:47:20.424Z,99864.81
2023-01-15T14:50:31.188Z,99868.75
2023-01-15T14:53:36.247Z,99860.31
2023-01-15T14:56:41.789Z,99862.91
2023-01-15T14:59:48.228Z,99857.28
2023-01-15T15:02:50.830Z,99861.16
2023-01-15T15:05:53.499Z,99857.13
2023-01-15T15:09:00.650Z,99863.47
2023-01-15T15:12:20.795Z,99863.47
2023-01-15T15:15:29.136Z,99857.00
2023-01-15T15:18:32.862Z,99873.69
2023-01-15T15:21:38.457Z,99864.06
2023-01-15T15:24:45.564Z,99885.94
2023-01-15T15:27:48.148Z,99874.41
2023-01-15T15:30:50.756Z,99883.91
2023-01-15T15:33:54.133Z,99885.50
2023-01-15T15:36:57.957Z,99905.00
2023-01-15T15:40:03.783Z,99889.59
2023-01-15T15:43:28.888Z,99899.09
2023-01-15T15:46:50.391Z,99882.47
2023-01-15T15:49:55.983Z,99895.06
2023-01-15T15:52:58.608Z,99898.31
2023-01-15T15:56:02.612Z,99903.03
2023-01-15T15:59:06.047Z,99894.28
2023-01-15T16:02:15.327Z,99887.84
2023-01-15T16:05:22.879Z,99891.78
2023-01-15T16:08:25.479Z,99886.94
2023-01-15T16:11:29.366Z,99899.66
2023-01-15T16:14:31.900Z,99880.16
2023-01-15T16:17:41.829Z,99899.66
2023-01-15T16:20:44.364Z,99897.16
2023-01-15T16:23:56.588Z,99909.69
2023-01-15T16:27:03.786Z,99905.41
2023-01-15T16:30:07.317Z,99899.50
2023-01-15T16:33:09.832Z,99909.09
2023-01-15T16:36:12.368Z,99907.09
2023-01-15T16:39:19.194Z,99908.59
2023-01-15T16:42:27.811Z,99898.75
2023-01-15T16:45:30.358Z,99897.19
2023-01-15T16:48:37.879Z,99903.66
2023-01-15T16:51:42.962Z,99911.00
2023-01-15T16:54:46.673Z,99903.28
2023-01-15T16:57:50.555Z,99911.38
2023-01-15T17:00:55.703Z,99899.75
2023-01-15T17:03:58.764Z,99904.28
2023-01-15T17:07:02.112Z,99904.06
2023-01-15T17:10:05.332Z,99907.09
2023-01-15T17:13:17.818Z,99899.47
2023-01-15T17:16:20.883Z,99903.38
2023-01-15T17:19:23.531Z,99907.34
2023-01-15T17:22:27.927Z,99899.50
2023-01-15T17:25:32.324Z,99896.50
2023-01-15T17:28:36.265Z,99903.91
2023-01-15T17:31:40.099Z,99897.81
2023-01-15T17:34:42.741Z,99910.59
2023-01-15T17:37:45.330Z,99901.84
2023-01-15T17:40:47.929Z,99897.03
2023-01-15T17:43:51.918Z,99912.44
2023-01-15T17:46:54.474Z,99912.00
2023-01-15T17:49:57.392Z,99898.50
2023-01-15T17:53:00.020Z,99911.06
2023-01-15T17:56:20.107Z,99914.19
2023-01-15T17:59:41.799Z,99911.53
2023-01-15T18:03:02.321Z,99907.84
2023-01-15T18:06:05.172Z,99911.41
2023-01-15T18:09:07.722Z,99910.63
2023-01-15T18:12:10.373Z,99909.00
2023-01-15T18:15:14.762Z,99915.91
2023-01-15T18:18:17.531Z,99897.72
2023-01-15T18:21:20.156Z,99903.94
2023-01-15T18:24:23.666Z,99895.19
2023-01-15T18:27:29.914Z,99895.88
2023-01-15T18:30:34.611Z,99899.78
2023-01-15T18:33:37.205Z,99892.66
2023-01-15T18:36:41.079Z,99893.47
2023-01-15T18:39:43.664Z,99890.56
2023-01-15T18:43:03.612Z,99897.59
2023-01-15T18:46:25.687Z,99894.03
2023-01-15T18:49:28.318Z,99904.97
2023-01-15T18:52:48.845Z,99889.88
2023-01-15T18:55:51.427Z,99894.50
2023-01-15T18:58:56.561Z,99895.16
2023-01-15T19:02:00.860Z,99885.50
2023-01-15T19:05:03.489Z,99890.53
2023-01-15T19:08:06.017Z,99881.34
2023-01-15T19:11:12.666Z,99882.00
2023-01-15T19:14:32.936Z,99887.75
2023-01-15T19:17:54.460Z,99877.75
2023-01-15T19:20:57.043Z,99870.03
2023-01-15T19:23:59.832Z,99863.56
2023-01-15T19:27:02.547Z,99855.94
2023-01-15T19:30:07.898Z,99845.63
2023-01-15T19:33:11.779Z,99848.22
2023-01-15T19:36:14.387Z,99840.66
2023-01-15T19:39:17.770Z,99831.78
2023-01-15T19:42:38.116Z,99834.06
2023-01-15T19:46:10.850Z,99835.44
2023-01-15T19:49:34.703Z,99841.75
2023-01-15T19:52:37.937Z,99829.00
2023-01-15T19:55:42.608Z,99811.97
2023-01-15T19:58:45.176Z,99814.75
2023-01-15T20:01:47.820Z,99815.22
2023-01-15T20:04:52.016Z,99810.13
2023-01-15T20:07:54.724Z,99808.53
2023-01-15T20:10:57.299Z,99808.53
2023-01-15T20:13:59.054Z,99802.22
2023-01-15T20:17:01.751Z,99803.69
2023-01-15T20:20:06.640Z,99798.19
2023-01-15T20:23:09.237Z,99782.31
2023-01-15T20:26:13.129Z,99780.81
2023-01-15T20:29:15.715Z,99778.53
2023-01-15T20:32:18.311Z,99773.84
2023-01-15T20:35:23.095Z,99774.16
2023-01-15T20:38:25.874Z,99764.38
2023-01-15T20:41:46.257Z,99765.19
2023-01-15T20:44:54.905Z,99754.06
2023-01-15T20:48:15.534Z,99751.28
2023-01-15T20:51:19.967Z,99749.19
2023-01-15T20:54:22.722Z,99747.16
2023-01-15T20:57:25.294Z,99747.94
2023-01-15T21:00:28.037Z,99744.38
2023-01-15T21:03:30.604Z,99741.97
2023-01-15T21:06:34.490Z,99741.03
2023-01-15T21:09:37.138Z,99744.84
2023-01-15T21:12:39.738Z,99743.88
2023-01-15T21:15:44.060Z,99747.78
2023-01-15T21:18:48.966Z,99742.28
2023-01-15T21:21:52.876Z,99727.81
2023-01-15T21:24:55.448Z,99726.69
2023-01-15T21:27:58.036Z,99720.34
2023-01-15T21:31:03.954Z,99710.81
2023-01-15T21:34:06.859Z,99708.28
2023-01-15T21:37:10.881Z,99700.81
2023-01-15T21:40:13.907Z,99697.91
2023-01-15T21:43:34.390Z,99695.84
2023-01-15T21:46:36.979Z,99689.19
2023-01-15T21:49:39.535Z,99686.09
2023-01-15T21:52:43.414Z,99676.56
2023-01-15T21:55:49.544Z,99671.03
2023-01-15T21:58:52.122Z,99667.81
2023-01-15T22:01:55.133Z,99658.41
2023-01-15T22:04:57.917Z,99658.41
2023-01-15T22:08:04.542Z,99659.53
2023-01-15T22:11:10.556Z,99653.91
2023-01-15T22:14:13.955Z,99640.94
2023-01-15T22:17:16.517Z,99657.09
2023-01-15T22:20:19.160Z,99650.00
2023-01-15T22:23:23.038Z,99646.63
2023-01-15T22:26:26.211Z,99641.13
2023-01-15T22:29:29.487Z,99632.41
2023-01-15T22:32:32.027Z,99627.72
2023-01-15T22:35:34.623Z,99625.28
2023-01-15T22:38:38.978Z,99622.06
2023-01-15T22:41:59.266Z,99613.69
2023-01-15T22:45:03.860Z,99607.59
2023-01-15T22:48:06.913Z,99601.34
2023-01-15T22:51:09.583Z,99602.63
2023-01-15T22:54:13.466Z,99593.78
2023-01-15T22:57:16.953Z,99593.56
2023-01-15T23:00:19.852Z,99587.59
2023-01-15T23:03:22.430Z,99587.13
2023-01-15T23:06:26.098Z,99585.84
2023-01-15T23:09:30.090Z,99581.81
2023-01-15T23:12:32.674Z,99577.94
2023-01-15T23:15:35.237Z,99582.19
2023-01-15T23:18:37.907Z,99578.63
2023-01-15T23:21:40.682Z,99571.50
2023-01-15T23:24:44.622Z,99575.41
2023-01-15T23:27:47.155Z,99561.53
2023-01-15T23:30:49.721Z,99556.78
2023-01-15T23:33:52.307Z,99553.25
2023-01-15T23:36:54.845Z,99552.44
2023-01-15T23:39:58.707Z,99544.84
2023-01-15T23:43:18.679Z,99537.63
2023-01-15T23:46:33.557Z,99533.16
2023-01-15T23:49:36.137Z,99531.53
2023-01-15T23:52:38.705Z,99536.22
2023-01-15T23:55:42.663Z,99529.91
2023-01-15T23:58:45.822Z,99501.91
